createdAt,value
2022-11-13T00:02:18.293Z,98.27
2022-11-13T00:04:45.043Z,98.17
2022-11-13T00:07:11.959Z,98.07
2022-11-13T00:09:38.993Z,98.02
2022-11-13T00:12:06.406Z,98.24
2022-11-13T00:14:33.449Z,98.12
2022-11-13T00:17:00.188Z,98.41
2022-11-13T00:19:26.962Z,98.44
2022-11-13T00:21:55.093Z,98.28
2022-11-13T00:24:21.862Z,98.43
2022-11-13T00:26:48.599Z,98.65
2022-11-13T00:29:15.482Z,98.62
2022-11-13T00:31:42.333Z,98.51
2022-11-13T00:34:26.364Z,98.65
2022-11-13T00:36:57.193Z,98.77
2022-11-13T00:39:23.953Z,98.75
2022-11-13T00:41:50.782Z,98.70
2022-11-13T00:44:17.492Z,99.03
2022-11-13T00:46:44.341Z,99.05
2022-11-13T00:49:11.182Z,99.04
2022-11-13T00:51:37.989Z,99.07
2022-11-13T00:54:04.712Z,98.87
2022-11-13T00:56:31.632Z,98.99
2022-11-13T00:58:58.656Z,99.06
2022-11-13T01:01:25.553Z,99.13
2022-11-13T01:03:52.324Z,99.01
2022-11-13T01:06:21.563Z,99.08
2022-11-13T01:08:48.815Z,99.18
2022-11-13T01:11:17.891Z,99.16
2022-11-13T01:13:45.851Z,99.38
2022-11-13T01:16:13.702Z,99.48
2022-11-13T01:18:41.712Z,99.42
2022-11-13T01:21:11.875Z,99.39
2022-11-13T01:23:39.111Z,99.17
2022-11-13T01:26:08.272Z,99.20
2022-11-13T01:28:35.031Z,99.20
2022-11-13T01:31:04.421Z,99.51
2022-11-13T01:33:31.163Z,99.14
2022-11-13T01:36:07.951Z,99.22
2022-11-13T01:38:36.843Z,99.37
2022-11-13T01:41:05.227Z,99.38
2022-11-13T01:43:33.896Z,99.47
2022-11-13T01:46:00.745Z,99.60
2022-11-13T01:48:32.452Z,99.40
2022-11-13T01:50:59.107Z,99.54
2022-11-13T01:53:26.026Z,99.55
2022-11-13T01:55:53.207Z,99.81
2022-11-13T01:58:20.161Z,99.92
2022-11-13T02:00:46.833Z,99.92
2022-11-13T02:03:13.426Z,99.91
2022-11-13T02:05:40.087Z,99.93
2022-11-13T02:08:06.683Z,99.67
2022-11-13T02:10:33.422Z,99.61
2022-11-13T02:13:00.622Z,99.56
2022-11-13T02:15:28.942Z,99.48
2022-11-13T02:17:56.972Z,99.86
2022-11-13T02:20:27.997Z,99.80
2022-11-13T02:23:01.881Z,99.74
2022-11-13T02:25:30.216Z,99.57
2022-11-13T02:27:56.897Z,99.63
2022-11-13T02:30:27.836Z,99.46
2022-11-13T02:32:55.547Z,99.65
2022-11-13T02:35:24.936Z,99.34
2022-11-13T02:37:51.541Z,99.47
2022-11-13T02:40:18.638Z,100.00
2022-11-13T02:42:45.282Z,100.00
2022-11-13T02:45:11.962Z,100.00
2022-11-13T02:47:38.635Z,100.00
2022-11-13T02:50:05.984Z,100.00
2022-11-13T02:52:32.676Z,100.00
2022-11-13T02:54:59.688Z,100.00
2022-11-13T02:57:26.456Z,100.00
2022-11-13T02:59:53.113Z,100.00
2022-11-13T03:02:19.815Z,100.00
2022-11-13T03:05:11.009Z,100.00
2022-11-13T03:07:33.328Z,100.00
2022-11-13T03:10:00.102Z,100.00
2022-11-13T03:12:26.807Z,100.00
2022-11-13T03:14:54.616Z,100.00
2022-11-13T03:17:21.272Z,99.98
2022-11-13T03:19:47.937Z,99.83
2022-11-13T03:22:14.566Z,99.65
2022-11-13T03:24:41.257Z,99.78
2022-11-13T03:27:07.882Z,99.50
2022-11-13T03:29:34.486Z,99.52
2022-11-13T03:32:01.097Z,99.76
2022-11-13T03:34:28.251Z,99.52
2022-11-13T03:36:54.900Z,100.00
2022-11-13T03:39:21.517Z,100.00
2022-11-13T03:41:48.131Z,99.97
2022-11-13T03:44:14.721Z,99.61
2022-11-13T03:46:41.325Z,99.42
2022-11-13T03:49:08.321Z,99.59
2022-11-13T03:51:35.011Z,99.47
2022-11-13T03:54:01.651Z,99.21
2022-11-13T03:56:28.267Z,99.31
2022-11-13T03:58:54.912Z,99.25
2022-11-13T04:01:21.648Z,99.67
2022-11-13T04:03:48.341Z,100.00
2022-11-13T04:06:15.117Z,99.56
2022-11-13T04:08:41.722Z,99.36
2022-11-13T04:11:09.582Z,99.44
2022-11-13T04:13:36.255Z,99.31
2022-11-13T04:16:03.385Z,99.24
2022-11-13T04:18:30.267Z,99.13
2022-11-13T04:21:01.521Z,98.98
2022-11-13T04:23:28.506Z,98.90
2022-11-13T04:25:55.151Z,99.02
2022-11-13T04:28:22.240Z,98.97
2022-11-13T04:30:49.096Z,98.98
2022-11-13T04:33:15.730Z,98.63
2022-11-13T04:35:45.815Z,98.51
2022-11-13T04:38:12.976Z,98.60
2022-11-13T04:40:39.802Z,98.59
2022-11-13T04:43:06.463Z,98.68
2022-11-13T04:45:33.436Z,98.86
2022-11-13T04:48:00.221Z,98.57
2022-11-13T04:50:26.872Z,98.39
2022-11-13T04:52:53.498Z,98.81
2022-11-13T04:55:20.105Z,98.79
2022-11-13T04:57:46.982Z,98.78
2022-11-13T05:00:14.936Z,98.67
2022-11-13T05:02:41.563Z,98.35
2022-11-13T05:05:08.560Z,98.32
2022-11-13T05:07:35.290Z,98.33
2022-11-13T05:10:02.061Z,98.67
2022-11-13T05:12:28.765Z,99.00
2022-11-13T05:14:55.382Z,98.59
2022-11-13T05:17:23.403Z,98.40
2022-11-13T05:19:50.005Z,98.39
2022-11-13T05:22:16.641Z,98.19
2022-11-13T05:24:43.350Z,98.34
2022-11-13T05:27:15.808Z,98.75
2022-11-13T05:29:43.755Z,98.83
2022-11-13T05:32:10.394Z,98.73
2022-11-13T05:34:37.049Z,98.75
2022-11-13T05:37:04.010Z,98.78
2022-11-13T05:39:30.757Z,98.90
2022-11-13T05:41:57.396Z,98.71
2022-11-13T05:44:23.969Z,98.58
2022-11-13T05:46:50.587Z,98.29
2022-11-13T05:49:17.284Z,98.57
2022-11-13T05:51:43.938Z,98.43
2022-11-13T05:54:11.030Z,98.40
2022-11-13T05:56:37.734Z,98.56
2022-11-13T05:59:05.261Z,98.26
2022-11-13T06:01:33.961Z,98.34
2022-11-13T06:04:01.354Z,98.22
2022-11-13T06:06:30.010Z,98.42
2022-11-13T06:08:57.426Z,98.41
2022-11-13T06:11:25.954Z,98.26
2022-11-13T06:13:53.540Z,98.18
2022-11-13T06:16:21.915Z,98.11
2022-11-13T06:18:49.270Z,98.29
2022-11-13T06:21:17.191Z,98.18
2022-11-13T06:23:43.890Z,98.88
2022-11-13T06:26:12.256Z,98.79
2022-11-13T06:28:38.994Z,98.77
2022-11-13T06:31:06.569Z,98.73
2022-11-13T06:33:33.285Z,98.95
2022-11-13T06:36:04.112Z,98.61
2022-11-13T06:38:32.599Z,98.84
2022-11-13T06:40:59.563Z,98.89
2022-11-13T06:43:26.566Z,98.76
2022-11-13T06:45:53.366Z,98.51
2022-11-13T06:48:20.035Z,98.26
2022-11-13T06:50:48.614Z,97.99
2022-11-13T06:53:15.929Z,97.99
2022-11-13T06:55:43.765Z,97.93
2022-11-13T06:58:10.374Z,97.97
2022-11-13T07:00:39.791Z,97.87
2022-11-13T07:03:06.875Z,98.06
2022-11-13T07:05:36.528Z,97.87
2022-11-13T07:08:03.349Z,97.77
2022-11-13T07:10:30.016Z,97.86
2022-11-13T07:12:59.081Z,97.65
2022-11-13T07:15:25.940Z,97.98
2022-11-13T07:17:52.593Z,98.01
2022-11-13T07:20:19.316Z,98.15
2022-11-13T07:22:45.934Z,98.22
2022-11-13T07:25:12.668Z,98.63
2022-11-13T07:27:44.525Z,98.58
2022-11-13T07:30:11.536Z,98.09
2022-11-13T07:32:38.171Z,98.05
2022-11-13T07:35:05.246Z,98.03
2022-11-13T07:37:31.943Z,98.11
2022-11-13T07:39:58.567Z,98.13
2022-11-13T07:42:25.181Z,98.38
2022-11-13T07:44:55.605Z,98.31
2022-11-13T07:47:23.131Z,98.20
2022-11-13T07:49:49.741Z,98.07
2022-11-13T07:52:16.486Z,98.10
2022-11-13T07:54:43.341Z,98.10
2022-11-13T07:57:10.056Z,98.05
2022-11-13T07:59:36.772Z,98.12
2022-11-13T08:02:03.788Z,97.92
2022-11-13T08:04:30.770Z,98.16
2022-11-13T08:06:57.571Z,98.04
2022-11-13T08:09:24.301Z,97.36
2022-11-13T08:11:51.050Z,97.18
2022-11-13T08:14:17.703Z,97.07
2022-11-13T08:16:44.287Z,97.12
2022-11-13T08:19:11.067Z,96.85
2022-11-13T08:21:37.803Z,96.85
2022-11-13T08:24:04.570Z,96.70
2022-11-13T08:26:31.228Z,96.95
2022-11-13T08:28:57.787Z,96.50
2022-11-13T08:31:24.458Z,96.37
2022-11-13T08:33:51.077Z,96.22
2022-11-13T08:36:17.897Z,96.14
2022-11-13T08:38:44.572Z,96.47
2022-11-13T08:41:11.193Z,97.00
2022-11-13T08:43:57.838Z,96.99
2022-11-13T08:46:24.523Z,96.47
2022-11-13T08:48:51.137Z,96.52
2022-11-13T08:51:18.527Z,96.52
2022-11-13T08:53:45.182Z,96.50
2022-11-13T08:56:11.806Z,96.70
2022-11-13T08:58:38.597Z,96.64
2022-11-13T09:01:05.374Z,96.71
2022-11-13T09:03:32.078Z,96.50
2022-11-13T09:05:58.803Z,96.66
2022-11-13T09:08:25.542Z,96.70
2022-11-13T09:10:52.303Z,96.96
2022-11-13T09:13:18.945Z,96.49
2022-11-13T09:15:45.559Z,96.29
2022-11-13T09:18:12.232Z,96.12
2022-11-13T09:20:38.938Z,96.13
2022-11-13T09:23:07.478Z,95.99
2022-11-13T09:25:37.512Z,96.20
2022-11-13T09:28:05.283Z,96.13
2022-11-13T09:30:31.961Z,95.70
2022-11-13T09:33:00.592Z,95.60
2022-11-13T09:35:35.134Z,95.73
2022-11-13T09:38:11.127Z,95.64
2022-11-13T09:40:42.318Z,96.20
2022-11-13T09:43:15.122Z,96.21
2022-11-13T09:45:41.942Z,96.07
2022-11-13T09:48:18.527Z,96.04
2022-11-13T09:50:45.187Z,95.93
2022-11-13T09:53:12.551Z,95.76
2022-11-13T09:55:42.144Z,95.85
2022-11-13T09:58:20.007Z,95.85
2022-11-13T10:00:47.088Z,95.64
2022-11-13T10:03:39.394Z,95.52
2022-11-13T10:06:16.843Z,95.61
2022-11-13T10:08:43.693Z,95.88
2022-11-13T10:11:11.547Z,96.03
2022-11-13T10:13:38.387Z,96.06
2022-11-13T10:16:14.491Z,95.91
2022-11-13T10:18:41.862Z,95.55
2022-11-13T10:21:09.860Z,95.23
2022-11-13T10:23:38.102Z,94.97
2022-11-13T10:26:13.447Z,95.19
2022-11-13T10:28:51.044Z,94.61
2022-11-13T10:31:18.231Z,94.56
2022-11-13T10:33:45.039Z,94.91
2022-11-13T10:36:17.502Z,94.75
2022-11-13T10:38:47.618Z,94.31
2022-11-13T10:41:15.958Z,93.75
2022-11-13T10:43:51.883Z,93.56
2022-11-13T10:46:20.057Z,93.91
2022-11-13T10:48:46.779Z,94.25
2022-11-13T10:51:22.985Z,94.31
2022-11-13T10:53:49.693Z,94.55
2022-11-13T10:56:25.816Z,94.66
2022-11-13T10:59:01.902Z,94.03
2022-11-13T11:01:28.827Z,93.48
2022-11-13T11:04:06.502Z,93.34
2022-11-13T11:07:04.340Z,93.34
2022-11-13T11:09:31.177Z,93.26
2022-11-13T11:12:08.886Z,93.19
2022-11-13T11:14:38.883Z,92.57
2022-11-13T11:17:06.840Z,92.34
2022-11-13T11:19:37.461Z,91.79
2022-11-13T11:22:12.005Z,91.67
2022-11-13T11:24:42.084Z,91.43
2022-11-13T11:27:14.202Z,92.21
2022-11-13T11:29:45.718Z,92.41
2022-11-13T11:32:16.218Z,92.18
2022-11-13T11:34:43.358Z,92.10
2022-11-13T11:37:15.506Z,91.85
2022-11-13T11:39:45.539Z,91.62
2022-11-13T11:42:18.960Z,92.09
2022-11-13T11:44:56.679Z,92.07
2022-11-13T11:47:23.686Z,91.62
2022-11-13T11:49:50.561Z,92.04
2022-11-13T11:52:20.541Z,92.34
2022-11-13T11:54:58.335Z,92.13
2022-11-13T11:57:32.506Z,92.58
2022-11-13T12:00:04.061Z,92.87
2022-11-13T12:02:42.862Z,92.62
2022-11-13T12:05:22.448Z,92.68
2022-11-13T12:07:55.739Z,92.53
2022-11-13T12:10:32.449Z,92.24
2022-11-13T12:13:06.386Z,92.78
2022-11-13T12:15:35.324Z,92.61
2022-11-13T12:18:12.121Z,92.36
2022-11-13T12:20:44.175Z,92.14
2022-11-13T12:23:14.269Z,92.15
2022-11-13T12:25:45.823Z,91.95
2022-11-13T12:28:22.186Z,92.06
2022-11-13T12:30:52.199Z,91.95
2022-11-13T12:33:28.961Z,91.61
2022-11-13T12:35:56.098Z,91.35
2022-11-13T12:38:23.031Z,91.57
2022-11-13T12:40:59.044Z,91.46
2022-11-13T12:43:34.950Z,91.00
2022-11-13T12:46:08.683Z,91.19
2022-11-13T12:48:35.839Z,91.15
2022-11-13T12:51:04.349Z,91.20
2022-11-13T12:53:43.360Z,90.81
2022-11-13T12:56:14.650Z,90.47
2022-11-13T12:59:15.399Z,90.56
2022-11-13T13:01:44.679Z,90.07
2022-11-13T13:04:19.428Z,89.85
2022-11-13T13:06:47.452Z,89.95
2022-11-13T13:09:17.450Z,89.68
2022-11-13T13:11:48.307Z,89.61
2022-11-13T13:14:24.945Z,89.80
2022-11-13T13:16:51.755Z,89.50
2022-11-13T13:19:28.892Z,88.96
2022-11-13T13:21:55.745Z,88.74
2022-11-13T13:24:32.064Z,88.37
2022-11-13T13:27:00.266Z,87.92
2022-11-13T13:29:28.252Z,88.09
2022-11-13T13:32:08.623Z,87.94
2022-11-13T13:34:47.918Z,87.91
2022-11-13T13:37:15.961Z,87.76
2022-11-13T13:39:52.025Z,87.94
2022-11-13T13:42:30.384Z,87.85
2022-11-13T13:44:57.539Z,88.26
2022-11-13T13:47:24.596Z,88.22
2022-11-13T13:49:52.293Z,87.87
2022-11-13T13:52:22.638Z,87.38
2022-11-13T13:54:49.598Z,87.14
2022-11-13T13:57:16.952Z,87.33
2022-11-13T13:59:45.734Z,87.51
2022-11-13T14:02:15.152Z,88.05
2022-11-13T14:04:46.203Z,88.17
2022-11-13T14:07:23.169Z,87.92
2022-11-13T14:09:50.197Z,87.69
2022-11-13T14:12:18.483Z,87.86
2022-11-13T14:14:45.635Z,87.74
2022-11-13T14:17:12.838Z,89.95
2022-11-13T14:19:39.786Z,90.51
2022-11-13T14:22:09.067Z,90.65
2022-11-13T14:24:40.942Z,89.07
2022-11-13T14:27:09.265Z,88.31
2022-11-13T14:29:38.168Z,88.41
2022-11-13T14:32:06.760Z,88.51
2022-11-13T14:34:33.893Z,88.27
2022-11-13T14:37:11.359Z,88.89
2022-11-13T14:39:38.385Z,88.44
2022-11-13T14:42:06.721Z,88.79
2022-11-13T14:44:35.192Z,88.85
2022-11-13T14:47:04.533Z,88.82
2022-11-13T14:49:32.830Z,88.81
2022-11-13T14:52:01.755Z,89.35
2022-11-13T14:54:33.813Z,89.03
2022-11-13T14:57:11.524Z,89.38
2022-11-13T14:59:39.010Z,89.90
2022-11-13T15:02:06.431Z,90.11
2022-11-13T15:04:39.275Z,90.05
2022-11-13T15:07:17.324Z,89.16
2022-11-13T15:09:44.536Z,88.86
2022-11-13T15:12:12.710Z,89.29
2022-11-13T15:14:41.800Z,89.03
2022-11-13T15:17:13.774Z,88.97
2022-11-13T15:19:40.730Z,89.46
2022-11-13T15:22:30.801Z,89.61
2022-11-13T15:24:58.239Z,89.94
2022-11-13T15:27:25.184Z,89.50
2022-11-13T15:29:52.347Z,89.45
2022-11-13T15:32:19.483Z,89.89
2022-11-13T15:34:46.980Z,90.34
2022-11-13T15:37:15.407Z,90.69
2022-11-13T15:39:43.113Z,91.01
2022-11-13T15:42:13.386Z,91.44
2022-11-13T15:44:41.287Z,91.43
2022-11-13T15:47:19.333Z,91.29
2022-11-13T15:49:56.573Z,91.45
2022-11-13T15:52:36.241Z,91.89
2022-11-13T15:55:04.384Z,91.88
2022-11-13T15:57:31.665Z,91.91
2022-11-13T15:59:58.910Z,91.95
2022-11-13T16:02:26.970Z,92.08
2022-11-13T16:04:56.850Z,92.15
2022-11-13T16:07:27.704Z,92.32
2022-11-13T16:09:54.985Z,92.57
2022-11-13T16:12:22.305Z,92.94
2022-11-13T16:14:49.317Z,92.93
2022-11-13T16:17:20.554Z,93.30
2022-11-13T16:19:50.095Z,93.55
2022-11-13T16:22:19.206Z,94.02
2022-11-13T16:24:46.473Z,94.26
2022-11-13T16:27:18.058Z,94.20
2022-11-13T16:29:45.165Z,94.29
2022-11-13T16:32:14.920Z,94.53
2022-11-13T16:34:42.207Z,94.60
2022-11-13T16:37:14.392Z,94.87
2022-11-13T16:39:41.575Z,95.13
2022-11-13T16:42:08.904Z,95.48
2022-11-13T16:44:36.271Z,95.51
2022-11-13T16:47:03.463Z,95.50
2022-11-13T16:49:30.463Z,95.50
2022-11-13T16:51:57.758Z,95.77
2022-11-13T16:54:24.826Z,95.90
2022-11-13T16:56:52.045Z,96.24
2022-11-13T16:59:20.791Z,96.43
2022-11-13T17:01:48.127Z,96.42
2022-11-13T17:04:15.520Z,96.10
2022-11-13T17:06:42.794Z,96.51
2022-11-13T17:09:10.262Z,96.42
2022-11-13T17:11:37.424Z,96.96
2022-11-13T17:14:05.060Z,97.25
2022-11-13T17:16:32.358Z,97.13
2022-11-13T17:19:00.223Z,97.19
2022-11-13T17:21:28.843Z,97.11
2022-11-13T17:23:58.138Z,97.16
2022-11-13T17:26:25.863Z,97.44
2022-11-13T17:28:53.394Z,97.50
2022-11-13T17:31:21.201Z,97.49
2022-11-13T17:33:48.482Z,97.51
2022-11-13T17:36:15.802Z,97.64
2022-11-13T17:38:43.151Z,97.62
2022-11-13T17:41:11.835Z,97.65
2022-11-13T17:43:39.951Z,97.70
2022-11-13T17:46:10.518Z,97.87
2022-11-13T17:48:40.604Z,97.66
2022-11-13T17:51:09.097Z,97.59
2022-11-13T17:53:36.335Z,97.53
2022-11-13T17:56:08.200Z,97.48
2022-11-13T17:58:40.609Z,97.80
2022-11-13T18:01:10.120Z,97.60
2022-11-13T18:03:37.802Z,97.45
2022-11-13T18:06:06.627Z,97.65
2022-11-13T18:08:34.155Z,97.62
2022-11-13T18:11:07.554Z,97.58
2022-11-13T18:13:34.685Z,97.60
2022-11-13T18:16:06.370Z,97.67
2022-11-13T18:18:33.698Z,97.38
2022-11-13T18:21:03.610Z,97.14
2022-11-13T18:23:41.206Z,97.28
2022-11-13T18:26:10.510Z,97.25
2022-11-13T18:28:37.859Z,97.51
2022-11-13T18:31:08.587Z,97.56
2022-11-13T18:33:35.971Z,97.72
2022-11-13T18:36:04.854Z,97.54
2022-11-13T18:38:32.237Z,97.65
2022-11-13T18:41:03.660Z,97.63
2022-11-13T18:43:31.543Z,97.76
2022-11-13T18:46:01.014Z,98.41
2022-11-13T18:48:30.167Z,98.28
2022-11-13T18:50:58.145Z,98.23
2022-11-13T18:53:25.434Z,98.08
2022-11-13T18:55:52.842Z,97.98
2022-11-13T18:58:20.157Z,98.07
2022-11-13T19:00:49.752Z,97.99
2022-11-13T19:03:17.084Z,97.87
2022-11-13T19:05:45.172Z,97.96
2022-11-13T19:08:13.269Z,97.68
2022-11-13T19:10:40.879Z,97.98
2022-11-13T19:13:08.868Z,98.05
2022-11-13T19:15:36.961Z,98.13
2022-11-13T19:18:04.449Z,98.39
2022-11-13T19:20:31.675Z,98.77
2022-11-13T19:22:59.409Z,98.68
2022-11-13T19:25:26.640Z,98.53
2022-11-13T19:27:54.930Z,98.50
2022-11-13T19:30:22.218Z,98.89
2022-11-13T19:32:49.340Z,99.08
2022-11-13T19:35:16.345Z,98.90
2022-11-13T19:37:44.096Z,99.01
2022-11-13T19:40:14.317Z,98.61
2022-11-13T19:42:42.164Z,98.18
2022-11-13T19:45:09.977Z,97.79
2022-11-13T19:47:37.102Z,97.85
2022-11-13T19:50:04.574Z,98.16
2022-11-13T19:52:31.665Z,98.21
2022-11-13T19:54:58.860Z,98.31
2022-11-13T19:57:26.031Z,98.32
2022-11-13T19:59:53.093Z,97.96
2022-11-13T20:02:20.311Z,97.83
2022-11-13T20:04:47.650Z,97.69
2022-11-13T20:07:19.266Z,97.91
2022-11-13T20:09:47.270Z,98.19
2022-11-13T20:12:14.793Z,98.07
2022-11-13T20:14:42.074Z,97.95
2022-11-13T20:17:09.168Z,97.23
2022-11-13T20:19:40.867Z,97.25
2022-11-13T20:22:08.023Z,96.62
2022-11-13T20:24:34.949Z,96.12
2022-11-13T20:27:01.918Z,96.01
2022-11-13T20:29:29.217Z,95.87
2022-11-13T20:31:56.153Z,95.78
2022-11-13T20:34:23.115Z,95.34
2022-11-13T20:36:50.248Z,95.05
2022-11-13T20:39:17.329Z,94.69
2022-11-13T20:41:44.473Z,94.52
2022-11-13T20:44:12.698Z,94.22
2022-11-13T20:46:39.651Z,93.51
2022-11-13T20:49:06.523Z,93.18
2022-11-13T20:51:33.541Z,93.26
2022-11-13T20:54:00.942Z,92.83
2022-11-13T20:56:27.905Z,92.77
2022-11-13T20:58:54.920Z,92.82
2022-11-13T21:01:25.559Z,93.11
2022-11-13T21:03:52.804Z,93.18
2022-11-13T21:06:21.125Z,93.35
2022-11-13T21:08:48.705Z,92.97
2022-11-13T21:11:19.172Z,92.04
2022-11-13T21:13:46.098Z,91.65
2022-11-13T21:16:12.983Z,91.10
2022-11-13T21:18:40.034Z,91.26
2022-11-13T21:21:07.812Z,91.13
2022-11-13T21:23:35.074Z,91.42
2022-11-13T21:26:03.027Z,91.03
2022-11-13T21:28:33.644Z,90.88
2022-11-13T21:31:03.763Z,90.80
2022-11-13T21:33:31.825Z,90.91
2022-11-13T21:36:03.908Z,91.27
2022-11-13T21:38:31.544Z,91.37
2022-11-13T21:41:19.282Z,91.44
2022-11-13T21:43:46.247Z,91.60
2022-11-13T21:46:14.740Z,91.79
2022-11-13T21:48:41.870Z,91.91
2022-11-13T21:51:09.191Z,92.13
2022-11-13T21:53:36.094Z,92.48
2022-11-13T21:56:03.167Z,92.33
2022-11-13T21:58:31.558Z,92.17
2022-11-13T22:00:58.836Z,92.46
2022-11-13T22:03:26.061Z,92.55
2022-11-13T22:06:11.600Z,92.53
2022-11-13T22:08:38.415Z,92.43
2022-11-13T22:11:05.290Z,92.64
2022-11-13T22:13:32.262Z,93.47
2022-11-13T22:15:58.953Z,94.13
2022-11-13T22:18:26.174Z,94.16
2022-11-13T22:20:53.137Z,93.74
2022-11-13T22:23:19.891Z,93.54
2022-11-13T22:25:46.744Z,93.49
2022-11-13T22:28:13.484Z,93.69
2022-11-13T22:30:40.146Z,93.84
2022-11-13T22:33:06.888Z,93.86
2022-11-13T22:35:33.584Z,93.82
2022-11-13T22:38:01.942Z,94.00
2022-11-13T22:40:28.701Z,94.30
2022-11-13T22:42:56.077Z,94.56
2022-11-13T22:45:24.041Z,94.33
2022-11-13T22:47:51.092Z,94.06
2022-11-13T22:50:18.316Z,93.91
2022-11-13T22:52:44.956Z,93.81
2022-11-13T22:55:11.698Z,93.62
2022-11-13T22:57:38.407Z,94.17
2022-11-13T23:00:09.449Z,94.25
2022-11-13T23:02:36.161Z,94.05
2022-11-13T23:05:02.858Z,93.98
2022-11-13T23:07:30.749Z,93.68
2022-11-13T23:09:57.446Z,93.73
2022-11-13T23:12:24.077Z,93.87
2022-11-13T23:14:50.847Z,94.18
2022-11-13T23:17:17.559Z,94.58
2022-11-13T23:19:44.193Z,94.54
2022-11-13T23:22:10.797Z,94.32
2022-11-13T23:24:37.402Z,94.55
2022-11-13T23:27:04.567Z,94.96
2022-11-13T23:29:31.417Z,95.41
2022-11-13T23:31:58.017Z,95.56
2022-11-13T23:34:45.281Z,95.46
2022-11-13T23:37:11.251Z,95.78
2022-11-13T23:39:38.421Z,96.12
2022-11-13T23:42:05.112Z,96.54
2022-11-13T23:44:31.762Z,96.37
2022-11-13T23:46:58.416Z,96.44
2022-11-13T23:49:25.107Z,96.74
2022-11-13T23:51:51.851Z,96.75
2022-11-13T23:54:18.476Z,96.88
2022-11-13T23:56:45.123Z,96.89
2022-11-13T23:59:11.743Z,97.20
